createdAt,value
2019-02-01T00:00:11.708Z,0.00
2019-02-01T00:01:11.725Z,0.00
2019-02-01T00:02:11.753Z,0.00
2019-02-01T00:03:11.777Z,0.00
2019-02-01T00:04:11.802Z,0.00
2019-02-01T00:05:11.827Z,0.00
2019-02-01T00:06:11.851Z,0.00
2019-02-01T00:07:11.877Z,0.00
2019-02-01T00:08:11.903Z,0.00
2019-02-01T00:09:11.927Z,0.00
2019-02-01T00:10:11.953Z,0.00
2019-02-01T00:11:11.979Z,0.00
2019-02-01T00:12:12.006Z,0.00
2019-02-01T00:13:12.030Z,0.00
2019-02-01T00:14:12.054Z,0.00
2019-02-01T00:15:12.080Z,0.00
2019-02-01T00:16:12.106Z,0.00
2019-02-01T00:17:12.129Z,0.00
2019-02-01T00:18:12.157Z,0.00
2019-02-01T00:19:12.183Z,0.00
2019-02-01T00:20:12.206Z,0.00
2019-02-01T00:21:12.231Z,0.00
2019-02-01T00:22:12.254Z,0.00
2019-02-01T00:23:12.281Z,0.00
2019-02-01T00:24:12.306Z,0.00
2019-02-01T00:25:12.331Z,0.00
2019-02-01T00:26:12.355Z,0.00
2019-02-01T00:27:12.381Z,0.00
2019-02-01T00:28:12.407Z,0.00
2019-02-01T00:29:12.430Z,0.00
2019-02-01T00:30:12.455Z,0.00
2019-02-01T00:31:12.481Z,0.00
2019-02-01T00:32:12.506Z,0.00
2019-02-01T00:33:12.533Z,0.00
2019-02-01T00:34:12.561Z,0.00
2019-02-01T00:35:12.582Z,0.00
2019-02-01T00:36:12.606Z,0.00
2019-02-01T00:37:12.631Z,0.00
2019-02-01T00:38:12.655Z,0.00
2019-02-01T00:39:12.686Z,0.00
2019-02-01T00:40:12.705Z,0.00
2019-02-01T00:41:12.730Z,0.00
2019-02-01T00:42:12.755Z,0.00
2019-02-01T00:43:12.781Z,0.00
2019-02-01T00:44:12.805Z,0.00
2019-02-01T00:45:12.830Z,0.00
2019-02-01T00:46:12.854Z,0.00
2019-02-01T00:47:12.879Z,0.00
2019-02-01T00:48:12.904Z,0.00
2019-02-01T00:49:12.931Z,0.00
2019-02-01T00:50:12.953Z,0.00
2019-02-01T00:51:12.979Z,0.00
2019-02-01T00:52:13.004Z,0.00
2019-02-01T00:53:13.033Z,0.00
2019-02-01T00:54:13.054Z,0.00
2019-02-01T00:55:13.078Z,0.00
2019-02-01T00:56:13.103Z,0.00
2019-02-01T00:57:13.127Z,0.00
2019-02-01T00:58:13.151Z,0.00
2019-02-01T00:59:13.177Z,0.00
2019-02-01T01:00:13.202Z,0.00
2019-02-01T01:01:13.235Z,0.00
2019-02-01T01:02:13.252Z,0.00
2019-02-01T01:03:13.280Z,0.00
2019-02-01T01:04:13.302Z,0.00
2019-02-01T01:05:13.326Z,0.00
2019-02-01T01:06:13.350Z,0.00
2019-02-01T01:07:13.375Z,0.00
2019-02-01T01:08:13.401Z,0.00
2019-02-01T01:09:13.429Z,0.00
2019-02-01T01:10:13.449Z,0.00
2019-02-01T01:11:13.477Z,0.00
2019-02-01T01:12:13.504Z,0.00
2019-02-01T01:13:13.525Z,0.00
2019-02-01T01:14:13.549Z,0.00
2019-02-01T01:15:13.574Z,0.00
2019-02-01T01:16:13.601Z,0.00
2019-02-01T01:17:13.623Z,0.00
2019-02-01T01:18:23.601Z,0.00
2019-02-01T01:19:13.673Z,0.00
2019-02-01T01:20:13.698Z,0.00
2019-02-01T01:21:13.724Z,0.00
2019-02-01T01:22:13.752Z,0.00
2019-02-01T01:23:13.774Z,0.00
2019-02-01T01:24:13.798Z,0.00
2019-02-01T01:25:13.824Z,0.00
2019-02-01T01:26:13.847Z,0.00
2019-02-01T01:27:13.872Z,0.00
2019-02-01T01:28:13.897Z,0.00
2019-02-01T01:29:13.922Z,0.00
2019-02-01T01:30:13.948Z,0.00
2019-02-01T01:31:13.973Z,0.00
2019-02-01T01:32:14.000Z,0.00
2019-02-01T01:33:14.021Z,0.00
2019-02-01T01:34:14.047Z,0.00
2019-02-01T01:35:14.072Z,0.00
2019-02-01T01:36:14.096Z,0.00
2019-02-01T01:37:14.122Z,0.00
2019-02-01T01:38:14.150Z,0.00
2019-02-01T01:39:14.172Z,0.00
2019-02-01T01:40:14.198Z,0.00
2019-02-01T01:41:14.235Z,0.00
2019-02-01T01:42:14.247Z,0.00
2019-02-01T01:43:14.272Z,0.00
2019-02-01T01:44:14.348Z,0.00
2019-02-01T01:45:14.320Z,0.00
2019-02-01T01:46:14.346Z,0.00
2019-02-01T01:47:14.371Z,0.00
2019-02-01T01:48:14.395Z,0.00
2019-02-01T01:49:14.419Z,0.00
2019-02-01T01:50:14.444Z,0.00
2019-02-01T01:51:14.469Z,0.00
2019-02-01T01:52:14.495Z,0.00
2019-02-01T01:53:14.524Z,0.00
2019-02-01T01:54:14.545Z,0.00
2019-02-01T01:55:14.571Z,0.00
2019-02-01T01:56:14.595Z,0.00
2019-02-01T01:57:14.618Z,0.00
2019-02-01T01:58:14.643Z,0.00
2019-02-01T01:59:14.668Z,0.00
2019-02-01T02:00:14.693Z,0.00
2019-02-01T02:01:14.717Z,0.00
2019-02-01T02:02:14.742Z,0.00
2019-02-01T02:03:14.768Z,0.00
2019-02-01T02:04:14.794Z,0.00
2019-02-01T02:05:14.820Z,0.00
2019-02-01T02:06:14.852Z,0.00
2019-02-01T02:07:14.868Z,0.00
2019-02-01T02:08:14.892Z,0.00
2019-02-01T02:09:14.916Z,0.00
2019-02-01T02:10:14.942Z,0.00
2019-02-01T02:11:14.968Z,0.00
2019-02-01T02:12:14.998Z,0.00
2019-02-01T02:13:15.019Z,0.00
2019-02-01T02:14:15.042Z,0.00
2019-02-01T02:15:15.068Z,0.00
2019-02-01T02:16:15.092Z,0.00
2019-02-01T02:17:15.118Z,0.00
2019-02-01T02:18:15.141Z,0.00
2019-02-01T02:19:15.167Z,0.00
2019-02-01T02:20:15.192Z,0.00
2019-02-01T02:21:15.216Z,0.00
2019-02-01T02:22:15.242Z,0.00
2019-02-01T02:23:15.267Z,0.00
2019-02-01T02:24:15.292Z,0.00
2019-02-01T02:25:15.316Z,0.00
2019-02-01T02:26:15.365Z,0.00
2019-02-01T02:27:15.370Z,0.00
2019-02-01T02:28:15.392Z,0.00
2019-02-01T02:29:15.418Z,0.00
2019-02-01T02:30:15.455Z,0.00
2019-02-01T02:31:15.467Z,0.00
2019-02-01T02:32:15.499Z,0.00
2019-02-01T02:33:15.517Z,0.00
2019-02-01T02:34:15.549Z,0.00
2019-02-01T02:35:15.636Z,0.00
2019-02-01T02:36:15.595Z,0.00
2019-02-01T02:37:15.616Z,0.00
2019-02-01T02:38:15.642Z,0.00
2019-02-01T02:39:15.666Z,0.00
2019-02-01T02:40:15.693Z,0.00
2019-02-01T02:41:15.718Z,0.00
2019-02-01T02:42:15.742Z,0.00
2019-02-01T02:43:15.837Z,0.00
2019-02-01T02:44:15.793Z,0.00
2019-02-01T02:45:15.817Z,0.00
2019-02-01T02:46:19.160Z,0.00
2019-02-01T02:47:15.866Z,0.00
2019-02-01T02:48:15.893Z,0.00
2019-02-01T02:49:15.916Z,0.00
2019-02-01T02:50:15.941Z,0.00
2019-02-01T02:51:15.971Z,0.00
2019-02-01T02:52:15.995Z,0.00
2019-02-01T02:53:16.018Z,0.00
2019-02-01T02:54:16.055Z,0.00
2019-02-01T02:55:16.067Z,0.00
2019-02-01T02:56:16.092Z,0.00
2019-02-01T02:57:16.116Z,0.00
2019-02-01T02:58:16.144Z,0.00
2019-02-01T02:59:16.170Z,0.00
2019-02-01T03:00:16.193Z,0.00
2019-02-01T03:01:16.219Z,0.00
2019-02-01T03:02:16.243Z,0.00
2019-02-01T03:03:16.268Z,0.00
2019-02-01T03:04:16.291Z,0.00
2019-02-01T03:05:16.315Z,0.00
2019-02-01T03:06:16.341Z,0.00
2019-02-01T03:07:16.366Z,0.00
2019-02-01T03:08:16.392Z,0.00
2019-02-01T03:09:16.416Z,0.00
2019-02-01T03:10:16.441Z,0.00
2019-02-01T03:11:16.466Z,0.00
2019-02-01T03:12:16.491Z,0.00
2019-02-01T03:13:16.520Z,0.00
2019-02-01T03:14:16.539Z,0.00
2019-02-01T03:15:16.565Z,0.00
2019-02-01T03:16:16.615Z,0.00
2019-02-01T03:17:16.619Z,0.00
2019-02-01T03:18:16.638Z,0.00
2019-02-01T03:19:16.664Z,0.00
2019-02-01T03:20:16.689Z,0.00
2019-02-01T03:21:16.712Z,0.00
2019-02-01T03:22:16.737Z,0.00
2019-02-01T03:23:16.765Z,0.00
2019-02-01T03:24:16.797Z,0.00
2019-02-01T03:25:16.811Z,0.00
2019-02-01T03:26:16.837Z,0.00
2019-02-01T03:27:16.863Z,0.00
2019-02-01T03:28:16.894Z,0.00
2019-02-01T03:29:16.910Z,0.00
2019-02-01T03:30:16.937Z,0.00
2019-02-01T03:31:16.978Z,0.00
2019-02-01T03:32:16.988Z,0.00
2019-02-01T03:33:17.011Z,0.00
2019-02-01T03:34:17.034Z,0.00
2019-02-01T03:35:17.059Z,0.00
2019-02-01T03:36:17.086Z,0.00
2019-02-01T03:37:17.107Z,0.00
2019-02-01T03:38:17.134Z,0.00
2019-02-01T03:39:17.160Z,0.00
2019-02-01T03:40:17.183Z,0.00
2019-02-01T03:41:17.207Z,0.00
2019-02-01T03:42:17.234Z,0.00
2019-02-01T03:43:17.258Z,0.00
2019-02-01T03:44:17.283Z,0.00
2019-02-01T03:45:17.306Z,0.00
2019-02-01T03:46:17.330Z,0.00
2019-02-01T03:47:17.355Z,0.00
2019-02-01T03:48:17.383Z,0.00
2019-02-01T03:49:25.567Z,0.00
2019-02-01T03:50:17.430Z,0.00
2019-02-01T03:51:17.454Z,0.00
2019-02-01T03:52:17.491Z,0.00
2019-02-01T03:53:17.505Z,0.00
2019-02-01T03:55:17.556Z,0.00
2019-02-01T03:56:17.584Z,0.00
2019-02-01T03:57:17.607Z,0.00
2019-02-01T03:58:17.629Z,0.00
2019-02-01T03:59:17.653Z,0.00
2019-02-01T04:00:17.712Z,0.00
2019-02-01T04:01:17.703Z,0.00
2019-02-01T04:02:17.728Z,0.00
2019-02-01T04:03:17.754Z,0.00
2019-02-01T04:04:17.778Z,0.00
2019-02-01T04:05:17.803Z,0.00
2019-02-01T04:06:17.828Z,0.00
2019-02-01T04:07:17.865Z,0.00
2019-02-01T04:08:17.878Z,0.00
2019-02-01T04:09:17.901Z,0.00
2019-02-01T04:10:17.943Z,0.00
2019-02-01T04:11:18.854Z,0.00
2019-02-01T04:12:17.979Z,0.00
2019-02-01T04:13:18.001Z,0.00
2019-02-01T04:14:18.028Z,0.00
2019-02-01T04:15:18.055Z,0.00
2019-02-01T04:16:18.078Z,0.00
2019-02-01T04:17:18.102Z,0.00
2019-02-01T04:18:18.126Z,0.00
2019-02-01T04:19:18.151Z,0.00
2019-02-01T04:20:18.182Z,0.00
2019-02-01T04:21:18.201Z,0.00
2019-02-01T04:22:18.229Z,0.00
2019-02-01T04:23:18.251Z,0.00
2019-02-01T04:24:18.280Z,0.00
2019-02-01T04:25:18.317Z,0.00
2019-02-01T04:26:18.328Z,0.00
2019-02-01T04:27:18.352Z,0.00
2019-02-01T04:28:18.376Z,0.00
2019-02-01T04:29:18.407Z,0.00
2019-02-01T04:30:18.428Z,0.00
2019-02-01T04:31:18.451Z,0.00
2019-02-01T04:32:18.477Z,0.00
2019-02-01T04:33:18.502Z,0.00
2019-02-01T04:34:18.527Z,0.00
2019-02-01T04:35:18.551Z,0.00
2019-02-01T04:36:18.578Z,0.00
2019-02-01T04:37:18.603Z,0.00
2019-02-01T04:38:18.628Z,0.00
2019-02-01T04:39:18.653Z,0.00
2019-02-01T04:40:18.678Z,0.00
2019-02-01T04:41:18.846Z,0.00
2019-02-01T04:42:18.727Z,0.00
2019-02-01T04:43:18.752Z,0.00
2019-02-01T04:44:18.778Z,0.00
2019-02-01T04:45:18.813Z,0.00
2019-02-01T04:46:18.828Z,0.00
2019-02-01T04:47:18.855Z,0.00
2019-02-01T04:48:18.886Z,0.00
2019-02-01T04:49:18.903Z,0.00
2019-02-01T04:50:19.100Z,0.00
2019-02-01T04:51:18.955Z,0.00
2019-02-01T04:52:18.979Z,0.00
2019-02-01T04:53:19.005Z,0.00
2019-02-01T04:54:19.030Z,0.00
2019-02-01T04:55:19.055Z,0.00
2019-02-01T04:56:19.081Z,0.00
2019-02-01T04:57:19.105Z,0.00
2019-02-01T04:58:19.130Z,0.00
2019-02-01T04:59:19.156Z,0.00
2019-02-01T05:00:19.181Z,0.00
2019-02-01T05:01:19.205Z,0.00
2019-02-01T05:02:19.234Z,0.00
2019-02-01T05:03:19.389Z,0.00
2019-02-01T05:04:19.283Z,0.00
2019-02-01T05:05:19.360Z,0.00
2019-02-01T05:06:19.333Z,0.00
2019-02-01T05:07:19.358Z,0.00
2019-02-01T05:08:19.383Z,0.00
2019-02-01T05:09:19.407Z,0.00
2019-02-01T05:10:19.435Z,0.00
2019-02-01T05:11:19.457Z,0.00
2019-02-01T05:12:19.485Z,0.00
2019-02-01T05:13:19.508Z,0.00
2019-02-01T05:14:19.533Z,0.00
2019-02-01T05:15:19.563Z,0.00
2019-02-01T05:16:19.583Z,0.00
2019-02-01T05:17:19.611Z,0.00
2019-02-01T05:18:19.633Z,0.00
2019-02-01T05:19:19.660Z,0.00
2019-02-01T05:20:21.059Z,0.00
2019-02-01T05:21:19.709Z,0.00
2019-02-01T05:22:19.735Z,0.00
2019-02-01T05:23:19.764Z,0.00
2019-02-01T05:24:19.787Z,0.00
2019-02-01T05:25:19.810Z,0.00
2019-02-01T05:26:19.836Z,0.00
2019-02-01T05:27:19.947Z,0.00
2019-02-01T05:28:19.886Z,0.00
2019-02-01T05:29:19.909Z,0.00
2019-02-01T05:30:19.938Z,0.00
2019-02-01T05:31:19.961Z,0.00
2019-02-01T05:32:19.986Z,0.00
2019-02-01T05:33:20.014Z,0.00
2019-02-01T05:34:20.036Z,0.00
2019-02-01T05:35:20.061Z,0.00
2019-02-01T05:36:20.087Z,0.00
2019-02-01T05:37:20.112Z,0.00
2019-02-01T05:38:20.138Z,0.00
2019-02-01T05:39:20.162Z,0.00
2019-02-01T05:40:20.188Z,0.00
2019-02-01T05:41:20.212Z,0.00
2019-02-01T05:42:20.236Z,0.00
2019-02-01T05:43:20.267Z,0.00
2019-02-01T05:44:20.287Z,0.00
2019-02-01T05:45:20.312Z,0.00
2019-02-01T05:46:20.338Z,0.00
2019-02-01T05:47:20.362Z,0.00
2019-02-01T05:48:20.389Z,0.00
2019-02-01T05:49:20.412Z,0.00
2019-02-01T05:50:28.748Z,0.00
2019-02-01T05:51:20.462Z,0.00
2019-02-01T05:52:20.488Z,0.00
2019-02-01T05:53:20.514Z,0.00
2019-02-01T05:54:20.539Z,0.00
2019-02-01T05:55:20.563Z,0.00
2019-02-01T05:56:20.590Z,0.00
2019-02-01T05:57:20.613Z,0.00
2019-02-01T05:58:20.638Z,0.00
2019-02-01T05:59:20.673Z,0.00
2019-02-01T06:00:20.690Z,0.00
2019-02-01T06:01:20.714Z,0.00
2019-02-01T06:02:20.738Z,0.00
2019-02-01T06:03:20.766Z,0.00
2019-02-01T06:04:20.791Z,0.00
2019-02-01T06:05:20.814Z,0.00
2019-02-01T06:06:20.840Z,0.00
2019-02-01T06:07:20.866Z,0.00
2019-02-01T06:08:21.272Z,0.00
2019-02-01T06:09:20.915Z,0.00
2019-02-01T06:10:20.941Z,0.00
2019-02-01T06:11:21.067Z,0.00
2019-02-01T06:12:20.992Z,0.00
2019-02-01T06:13:21.017Z,0.00
2019-02-01T06:14:21.041Z,0.00
2019-02-01T06:15:21.069Z,0.00
2019-02-01T06:16:21.093Z,0.00
2019-02-01T06:17:21.117Z,0.00
2019-02-01T06:18:21.143Z,0.00
2019-02-01T06:19:21.180Z,0.00
2019-02-01T06:20:21.212Z,0.00
2019-02-01T06:21:21.217Z,0.00
2019-02-01T06:22:21.242Z,0.00
2019-02-01T06:23:21.270Z,0.00
2019-02-01T06:24:21.293Z,0.00
2019-02-01T06:25:21.319Z,0.00
2019-02-01T06:26:21.344Z,0.00
2019-02-01T06:27:21.370Z,0.00
2019-02-01T06:28:21.399Z,0.00
2019-02-01T06:29:21.419Z,0.00
2019-02-01T06:30:21.444Z,0.00
2019-02-01T06:31:22.905Z,0.00
2019-02-01T06:32:21.496Z,0.00
2019-02-01T06:33:21.521Z,0.00
2019-02-01T06:34:21.546Z,0.00
2019-02-01T06:35:21.572Z,0.00
2019-02-01T06:36:21.598Z,0.00
2019-02-01T06:37:21.622Z,4.00
2019-02-01T06:38:21.647Z,0.00
2019-02-01T06:39:21.673Z,4.00
2019-02-01T06:40:21.698Z,4.00
2019-02-01T06:41:21.722Z,4.00
2019-02-01T06:42:21.749Z,4.00
2019-02-01T06:43:21.773Z,4.00
2019-02-01T06:44:21.799Z,12.00
2019-02-01T06:45:21.823Z,12.00
2019-02-01T06:46:21.851Z,12.00
2019-02-01T06:47:21.881Z,12.00
2019-02-01T06:48:21.902Z,16.00
2019-02-01T06:49:21.925Z,20.00
2019-02-01T06:50:21.952Z,20.00
2019-02-01T06:51:21.980Z,20.00
2019-02-01T06:52:22.002Z,20.00
2019-02-01T06:53:22.027Z,24.00
2019-02-01T06:54:22.052Z,28.00
2019-02-01T06:55:22.078Z,28.00
2019-02-01T06:56:22.104Z,24.00
2019-02-01T06:57:22.129Z,24.00
2019-02-01T06:58:22.157Z,28.00
2019-02-01T06:59:22.181Z,32.00
2019-02-01T07:00:22.208Z,32.00
2019-02-01T07:01:22.230Z,36.00
2019-02-01T07:02:22.265Z,40.00
2019-02-01T07:03:22.382Z,44.00
2019-02-01T07:04:22.355Z,52.00
2019-02-01T07:05:22.333Z,64.00
2019-02-01T07:06:22.358Z,72.00
2019-02-01T07:07:22.385Z,80.00
2019-02-01T07:08:22.409Z,96.00
2019-02-01T07:09:22.435Z,108.00
2019-02-01T07:10:22.460Z,104.00
2019-02-01T07:11:22.485Z,112.00
2019-02-01T07:12:22.509Z,120.00
2019-02-01T07:13:22.536Z,128.00
2019-02-01T07:14:22.561Z,128.00
2019-02-01T07:15:22.588Z,132.00
2019-02-01T07:16:22.613Z,132.00
2019-02-01T07:17:22.638Z,144.00
2019-02-01T07:18:22.664Z,160.00
2019-02-01T07:19:22.693Z,152.00
2019-02-01T07:20:22.716Z,136.00
2019-02-01T07:21:22.741Z,124.00
2019-02-01T07:22:22.771Z,128.00
2019-02-01T07:23:22.792Z,148.00
2019-02-01T07:24:22.817Z,144.00
2019-02-01T07:25:22.842Z,144.00
2019-02-01T07:26:22.868Z,168.00
2019-02-01T07:27:22.895Z,188.00
2019-02-01T07:28:22.919Z,216.00
2019-02-01T07:29:22.946Z,228.00
2019-02-01T07:30:22.971Z,216.00
2019-02-01T07:31:23.090Z,216.00
2019-02-01T07:32:23.022Z,220.00
2019-02-01T07:33:32.062Z,248.00
2019-02-01T07:34:23.074Z,256.00
2019-02-01T07:35:23.099Z,304.00
2019-02-01T07:36:23.124Z,392.00
2019-02-01T07:37:23.153Z,412.00
2019-02-01T07:38:23.174Z,376.00
2019-02-01T07:39:23.323Z,324.00
2019-02-01T07:40:23.228Z,304.00
2019-02-01T07:41:23.303Z,320.00
2019-02-01T07:42:23.278Z,384.00
2019-02-01T07:43:23.304Z,400.00
2019-02-01T07:44:23.331Z,384.00
2019-02-01T07:45:23.354Z,432.00
2019-02-01T07:46:23.381Z,476.00
2019-02-01T07:47:23.406Z,468.00
2019-02-01T07:48:23.431Z,440.00
2019-02-01T07:49:23.458Z,400.00
2019-02-01T07:50:24.607Z,432.00
2019-02-01T07:51:23.509Z,488.00
2019-02-01T07:52:23.534Z,464.00
2019-02-01T07:53:23.559Z,424.00
2019-02-01T07:54:23.585Z,432.00
2019-02-01T07:55:23.612Z,448.00
2019-02-01T07:56:23.638Z,488.00
2019-02-01T07:57:23.662Z,524.00
2019-02-01T07:58:23.714Z,500.00
2019-02-01T07:59:23.715Z,484.00
2019-02-01T08:00:23.740Z,520.00
2019-02-01T08:01:26.970Z,536.00
2019-02-01T08:02:23.801Z,484.00
2019-02-01T08:03:23.817Z,524.00
2019-02-01T08:04:23.842Z,576.00
2019-02-01T08:05:23.867Z,636.00
2019-02-01T08:06:23.898Z,688.00
2019-02-01T08:07:23.920Z,704.00
2019-02-01T08:08:23.974Z,712.00
2019-02-01T08:09:23.972Z,700.00
2019-02-01T08:10:23.997Z,700.00
2019-02-01T08:11:24.022Z,676.00
2019-02-01T08:12:24.049Z,664.00
2019-02-01T08:13:24.075Z,648.00
2019-02-01T08:14:24.104Z,580.00
2019-02-01T08:15:24.136Z,548.00
2019-02-01T08:16:24.151Z,584.00
2019-02-01T08:17:24.179Z,584.00
2019-02-01T08:18:24.204Z,584.00
2019-02-01T08:19:24.232Z,548.00
2019-02-01T08:20:24.255Z,592.00
2019-02-01T08:21:27.119Z,644.00
2019-02-01T08:22:24.308Z,684.00
2019-02-01T08:23:24.333Z,632.00
2019-02-01T08:24:24.359Z,624.00
2019-02-01T08:25:24.384Z,604.00
2019-02-01T08:26:24.409Z,588.00
2019-02-01T08:27:24.436Z,568.00
2019-02-01T08:28:24.464Z,556.00
2019-02-01T08:29:24.618Z,588.00
2019-02-01T08:30:24.513Z,664.00
2019-02-01T08:31:24.539Z,740.00
2019-02-01T08:32:24.568Z,776.00
2019-02-01T08:33:24.591Z,760.00
2019-02-01T08:34:24.628Z,852.00
2019-02-01T08:35:24.646Z,876.00
2019-02-01T08:36:24.671Z,800.00
2019-02-01T08:37:24.695Z,780.00
2019-02-01T08:38:24.721Z,768.00
2019-02-01T08:39:24.747Z,724.00
2019-02-01T08:40:24.773Z,704.00
2019-02-01T08:41:24.798Z,664.00
2019-02-01T08:42:24.824Z,716.00
2019-02-01T08:43:24.852Z,840.00
2019-02-01T08:44:24.877Z,912.00
2019-02-01T08:45:24.901Z,820.00
2019-02-01T08:46:24.929Z,900.00
2019-02-01T08:47:24.956Z,988.00
2019-02-01T08:48:25.077Z,1180.00
2019-02-01T08:49:25.010Z,1212.00
2019-02-01T08:50:25.033Z,1064.00
2019-02-01T08:51:25.060Z,1040.00
2019-02-01T08:52:25.086Z,1032.00
2019-02-01T08:53:25.111Z,988.00
2019-02-01T08:54:25.237Z,1100.00
2019-02-01T08:55:25.164Z,1276.00
2019-02-01T08:56:25.189Z,1456.00
2019-02-01T08:57:25.215Z,1548.00
2019-02-01T08:58:25.245Z,1536.00
2019-02-01T08:59:25.277Z,1412.00
2019-02-01T09:00:29.103Z,1420.00
2019-02-01T09:01:25.319Z,1524.00
2019-02-01T09:02:25.346Z,1540.00
2019-02-01T09:03:25.371Z,1408.00
2019-02-01T09:04:25.398Z,1412.00
2019-02-01T09:05:25.423Z,1608.00
2019-02-01T09:06:25.450Z,1724.00
2019-02-01T09:07:25.476Z,1668.00
2019-02-01T09:08:25.502Z,1440.00
2019-02-01T09:09:25.532Z,1324.00
2019-02-01T09:10:25.554Z,1252.00
2019-02-01T09:11:25.601Z,1324.00
2019-02-01T09:12:25.607Z,1296.00
2019-02-01T09:13:25.632Z,1244.00
2019-02-01T09:14:25.662Z,1308.00
2019-02-01T09:15:25.686Z,1408.00
2019-02-01T09:16:25.711Z,1544.00
2019-02-01T09:17:25.738Z,1636.00
2019-02-01T09:18:25.763Z,1696.00
2019-02-01T09:19:25.791Z,1752.00
2019-02-01T09:20:25.816Z,1664.00
2019-02-01T09:21:25.841Z,1692.00
2019-02-01T09:22:25.867Z,1552.00
2019-02-01T09:23:25.899Z,1468.00
2019-02-01T09:24:25.924Z,1348.00
2019-02-01T09:25:25.946Z,1400.00
2019-02-01T09:26:25.991Z,1516.00
2019-02-01T09:27:25.998Z,1552.00
2019-02-01T09:28:26.025Z,1556.00
2019-02-01T09:29:26.053Z,1440.00
2019-02-01T09:30:26.077Z,1244.00
2019-02-01T09:31:26.104Z,1232.00
2019-02-01T09:32:26.131Z,1268.00
2019-02-01T09:33:26.158Z,1336.00
2019-02-01T09:34:26.184Z,1484.00
2019-02-01T09:35:26.259Z,1648.00
2019-02-01T09:36:26.234Z,1872.00
2019-02-01T09:37:26.261Z,2252.00
2019-02-01T09:38:26.287Z,2568.00
2019-02-01T09:39:26.313Z,2820.00
2019-02-01T09:40:26.389Z,2868.00
2019-02-01T09:41:26.365Z,2396.00
2019-02-01T09:42:26.394Z,2128.00
2019-02-01T09:43:26.435Z,2120.00
2019-02-01T09:44:26.444Z,2388.00
2019-02-01T09:45:26.470Z,2808.00
2019-02-01T09:46:26.496Z,3112.00
2019-02-01T09:47:26.524Z,3284.00
2019-02-01T09:48:26.551Z,3264.00
2019-02-01T09:49:26.582Z,3200.00
2019-02-01T09:50:26.606Z,3176.00
2019-02-01T09:51:26.628Z,3204.00
2019-02-01T09:52:26.655Z,3252.00
2019-02-01T09:53:26.680Z,3296.00
2019-02-01T09:54:26.759Z,3348.00
2019-02-01T09:55:26.735Z,3360.00
2019-02-01T09:56:26.762Z,3376.00
2019-02-01T09:57:26.787Z,3424.00
2019-02-01T09:58:26.815Z,3468.00
2019-02-01T09:59:26.840Z,3512.00
2019-02-01T10:00:26.868Z,3548.00
2019-02-01T10:01:26.894Z,3556.00
2019-02-01T10:02:26.920Z,3516.00
2019-02-01T10:03:26.946Z,3428.00
2019-02-01T10:04:26.982Z,3328.00
2019-02-01T10:05:26.998Z,3288.00
2019-02-01T10:06:27.026Z,3264.00
2019-02-01T10:07:27.054Z,3228.00
2019-02-01T10:08:27.081Z,3184.00
2019-02-01T10:09:27.107Z,3164.00
2019-02-01T10:10:27.147Z,3168.00
2019-02-01T10:11:27.171Z,3252.00
2019-02-01T10:12:27.208Z,3432.00
2019-02-01T10:13:27.212Z,3664.00
2019-02-01T10:14:27.260Z,3944.00
2019-02-01T10:15:27.279Z,4256.00
2019-02-01T10:16:27.292Z,4380.00
2019-02-01T10:17:27.318Z,4168.00
2019-02-01T10:18:27.346Z,3776.00
2019-02-01T10:19:27.375Z,3564.00
2019-02-01T10:20:27.402Z,3612.00
2019-02-01T10:21:27.426Z,3688.00
2019-02-01T10:22:27.453Z,3696.00
2019-02-01T10:23:27.492Z,3716.00
2019-02-01T10:24:27.508Z,3812.00
2019-02-01T10:25:27.532Z,3928.00
2019-02-01T10:26:27.562Z,4032.00
2019-02-01T10:27:27.586Z,4012.00
2019-02-01T10:28:27.615Z,3884.00
2019-02-01T10:29:27.640Z,3668.00
2019-02-01T10:30:27.667Z,3472.00
2019-02-01T10:31:27.695Z,3428.00
2019-02-01T10:32:27.729Z,3544.00
2019-02-01T10:33:27.748Z,3676.00
2019-02-01T10:34:27.786Z,3704.00
2019-02-01T10:35:27.803Z,3556.00
2019-02-01T10:36:27.829Z,3388.00
2019-02-01T10:37:27.856Z,3272.00
2019-02-01T10:38:27.883Z,3280.00
2019-02-01T10:39:27.910Z,3360.00
2019-02-01T10:40:27.940Z,3468.00
2019-02-01T10:41:27.963Z,3640.00
2019-02-01T10:42:27.991Z,3816.00
2019-02-01T10:43:28.018Z,4032.00
2019-02-01T10:44:28.048Z,4368.00
2019-02-01T10:45:28.071Z,4648.00
2019-02-01T10:46:28.100Z,4464.00
2019-02-01T10:47:28.127Z,4084.00
2019-02-01T10:48:28.157Z,3960.00
2019-02-01T10:49:28.178Z,4056.00
2019-02-01T10:50:28.206Z,4328.00
2019-02-01T10:51:28.233Z,4648.00
2019-02-01T10:52:28.282Z,4924.00
2019-02-01T10:53:28.287Z,5068.00
2019-02-01T10:54:28.313Z,5080.00
2019-02-01T10:55:28.340Z,5004.00
2019-02-01T10:56:28.369Z,4928.00
2019-02-01T10:57:28.393Z,4908.00
2019-02-01T10:58:28.421Z,4984.00
2019-02-01T10:59:28.451Z,5144.00
2019-02-01T11:00:28.475Z,5336.00
2019-02-01T11:01:30.863Z,5484.00
2019-02-01T11:02:28.531Z,5488.00
2019-02-01T11:03:28.556Z,5300.00
2019-02-01T11:04:36.310Z,5044.00
2019-02-01T11:05:28.612Z,4856.00
2019-02-01T11:06:28.637Z,4780.00
2019-02-01T11:07:28.664Z,4776.00
2019-02-01T11:08:28.692Z,4784.00
2019-02-01T11:09:28.719Z,4796.00
2019-02-01T11:10:28.747Z,4816.00
2019-02-01T11:11:28.774Z,4840.00
2019-02-01T11:12:28.802Z,4840.00
2019-02-01T11:13:28.829Z,4808.00
2019-02-01T11:14:28.856Z,4784.00
2019-02-01T11:15:28.883Z,4796.00
2019-02-01T11:16:28.910Z,4888.00
2019-02-01T11:17:28.936Z,5132.00
2019-02-01T11:18:28.964Z,5520.00
2019-02-01T11:19:28.991Z,5968.00
2019-02-01T11:20:29.021Z,6508.00
2019-02-01T11:21:29.047Z,7132.00
2019-02-01T11:22:36.115Z,7688.00
2019-02-01T11:23:29.102Z,8064.00
2019-02-01T11:24:29.128Z,8224.00
2019-02-01T11:25:29.155Z,8212.00
2019-02-01T11:26:29.183Z,8496.00
2019-02-01T11:27:29.213Z,8988.00
2019-02-01T11:28:29.237Z,9248.00
2019-02-01T11:29:29.278Z,9332.00
2019-02-01T11:30:29.292Z,9496.00
2019-02-01T11:31:29.321Z,9868.00
2019-02-01T11:32:29.348Z,10280.00
2019-02-01T11:33:29.375Z,10868.00
2019-02-01T11:34:29.404Z,11192.00
2019-02-01T11:35:29.448Z,10996.00
2019-02-01T11:36:29.458Z,11176.00
2019-02-01T11:37:29.486Z,11536.00
2019-02-01T11:38:29.514Z,11572.00
2019-02-01T11:39:29.542Z,11612.00
2019-02-01T11:40:29.569Z,12120.00
2019-02-01T11:41:29.598Z,12652.00
2019-02-01T11:42:29.627Z,12600.00
2019-02-01T11:43:29.654Z,12980.00
2019-02-01T11:44:29.683Z,12956.00
2019-02-01T11:45:29.710Z,12984.00
2019-02-01T11:46:29.738Z,12716.00
2019-02-01T11:47:29.772Z,13288.00
2019-02-01T11:48:29.797Z,13120.00
2019-02-01T11:49:29.829Z,13112.00
2019-02-01T11:50:29.852Z,12680.00
2019-02-01T11:51:29.883Z,11812.00
2019-02-01T11:52:29.911Z,11380.00
2019-02-01T11:53:29.941Z,11168.00
2019-02-01T11:54:29.967Z,11196.00
2019-02-01T11:55:30.013Z,11184.00
2019-02-01T11:56:30.025Z,11176.00
2019-02-01T11:57:30.064Z,11240.00
2019-02-01T11:58:30.083Z,11228.00
2019-02-01T11:59:30.112Z,11108.00
2019-02-01T12:00:30.143Z,10956.00
2019-02-01T12:01:30.304Z,10708.00
2019-02-01T12:02:30.211Z,10416.00
2019-02-01T12:03:30.229Z,10088.00
2019-02-01T12:04:30.259Z,9648.00
2019-02-01T12:05:30.288Z,9316.00
2019-02-01T12:06:33.363Z,9220.00
2019-02-01T12:07:30.347Z,9236.00
2019-02-01T12:08:30.380Z,9192.00
2019-02-01T12:09:30.405Z,9128.00
2019-02-01T12:10:30.434Z,8992.00
2019-02-01T12:11:30.463Z,8704.00
2019-02-01T12:12:30.493Z,8336.00
2019-02-01T12:13:30.522Z,8084.00
2019-02-01T12:14:30.551Z,7912.00
2019-02-01T12:15:30.582Z,7764.00
2019-02-01T12:16:30.611Z,7652.00
2019-02-01T12:17:30.643Z,7652.00
2019-02-01T12:18:30.673Z,7776.00
2019-02-01T12:19:30.698Z,7952.00
2019-02-01T12:20:30.729Z,8168.00
2019-02-01T12:21:30.759Z,8380.00
2019-02-01T12:22:30.789Z,8520.00
2019-02-01T12:23:30.817Z,8652.00
2019-02-01T12:24:30.847Z,8768.00
2019-02-01T12:25:32.279Z,8936.00
2019-02-01T12:26:30.905Z,9056.00
2019-02-01T12:27:30.947Z,9040.00
2019-02-01T12:28:30.965Z,9008.00
2019-02-01T12:29:30.994Z,8996.00
2019-02-01T12:30:31.074Z,8984.00
2019-02-01T12:31:31.052Z,9028.00
2019-02-01T12:32:31.081Z,8932.00
2019-02-01T12:33:31.110Z,8796.00
2019-02-01T12:34:31.141Z,8692.00
2019-02-01T12:35:31.169Z,8588.00
2019-02-01T12:36:31.199Z,8564.00
2019-02-01T12:37:31.228Z,8528.00
2019-02-01T12:38:31.257Z,8544.00
2019-02-01T12:39:31.342Z,8448.00
2019-02-01T12:40:31.315Z,8392.00
2019-02-01T12:41:31.351Z,8360.00
2019-02-01T12:42:31.376Z,8324.00
2019-02-01T12:43:31.401Z,8316.00
2019-02-01T12:44:31.430Z,8532.00
2019-02-01T12:45:31.459Z,8576.00
2019-02-01T12:46:31.488Z,8484.00
2019-02-01T12:47:31.516Z,8336.00